createdAt,value
2022-12-29T00:00:31.839Z,12
2022-12-29T00:01:31.702Z,12
2022-12-29T00:02:31.786Z,12
2022-12-29T00:03:31.883Z,12
2022-12-29T00:04:31.693Z,12.1
2022-12-29T00:05:31.663Z,12
2022-12-29T00:06:31.674Z,12
2022-12-29T00:07:31.736Z,12
2022-12-29T00:08:28.985Z,12
2022-12-29T00:09:31.674Z,12
2022-12-29T00:10:31.691Z,12
2022-12-29T00:11:31.756Z,12.1
2022-12-29T00:12:31.676Z,11.9
2022-12-29T00:13:31.663Z,11.9
2022-12-29T00:14:31.681Z,11.9
2022-12-29T00:15:31.814Z,11.9
2022-12-29T00:16:31.860Z,12
2022-12-29T00:17:31.689Z,12
2022-12-29T00:18:31.661Z,12.1
2022-12-29T00:19:31.691Z,12.1
2022-12-29T00:20:31.773Z,12
2022-12-29T00:21:31.674Z,12
2022-12-29T00:22:31.668Z,12
2022-12-29T00:23:31.677Z,12
2022-12-29T00:24:31.668Z,12
2022-12-29T00:25:31.687Z,12
2022-12-29T00:26:31.667Z,12.1
2022-12-29T00:27:31.677Z,12.1
2022-12-29T00:28:31.675Z,12.1
2022-12-29T00:29:31.691Z,12.1
2022-12-29T00:30:31.677Z,12.1
2022-12-29T00:31:31.797Z,12.1
2022-12-29T00:32:31.674Z,12.1
2022-12-29T00:33:31.693Z,12.1
2022-12-29T00:34:31.718Z,12.1
2022-12-29T00:35:31.671Z,12.1
2022-12-29T00:36:31.752Z,12.1
2022-12-29T00:37:31.715Z,12.1
2022-12-29T00:38:31.673Z,12.1
2022-12-29T00:39:31.696Z,12.1
2022-12-29T00:40:31.662Z,12.1
2022-12-29T00:41:31.690Z,12.2
2022-12-29T00:42:31.670Z,12.2
2022-12-29T00:43:31.685Z,12.3
2022-12-29T00:44:31.712Z,12.2
2022-12-29T00:45:31.669Z,12.3
2022-12-29T00:46:31.747Z,12.2
2022-12-29T00:47:31.665Z,12.3
2022-12-29T00:48:31.669Z,12.2
2022-12-29T00:49:31.710Z,12.3
2022-12-29T00:50:31.694Z,12.2
2022-12-29T00:51:31.679Z,12.1
2022-12-29T00:52:31.750Z,12.1
2022-12-29T00:53:31.777Z,12.2
2022-12-29T00:54:31.666Z,12.2
2022-12-29T00:55:31.667Z,12.2
2022-12-29T00:56:31.710Z,12.2
2022-12-29T00:57:31.677Z,12.2
2022-12-29T00:58:31.687Z,12.3
2022-12-29T00:59:31.698Z,12.3
2022-12-29T01:00:31.717Z,12.3
2022-12-29T01:01:32.067Z,12.4
2022-12-29T01:02:31.840Z,12.4
2022-12-29T01:03:31.732Z,12.4
2022-12-29T01:04:31.695Z,12.4
2022-12-29T01:05:31.709Z,12.3
2022-12-29T01:06:31.855Z,12.2
2022-12-29T01:07:31.704Z,12.3
2022-12-29T01:08:31.689Z,12.3
2022-12-29T01:09:31.690Z,12.3
2022-12-29T01:10:31.679Z,12.3
2022-12-29T01:11:31.678Z,12.4
2022-12-29T01:12:31.680Z,12.4
2022-12-29T01:13:31.703Z,12.4
2022-12-29T01:14:31.668Z,12.4
2022-12-29T01:15:31.697Z,12.3
2022-12-29T01:16:31.801Z,12.3
2022-12-29T01:17:31.766Z,12.3
2022-12-29T01:18:31.700Z,12.2
2022-12-29T01:19:31.760Z,12.3
2022-12-29T01:20:31.679Z,12.2
2022-12-29T01:21:31.681Z,12.1
2022-12-29T01:22:31.679Z,12.1
2022-12-29T01:23:31.678Z,12.1
2022-12-29T01:24:31.774Z,12.1
2022-12-29T01:25:31.696Z,12.1
2022-12-29T01:26:31.676Z,12.1
2022-12-29T01:27:31.671Z,12.2
2022-12-29T01:28:31.673Z,12.2
2022-12-29T01:29:31.681Z,12.2
2022-12-29T01:30:31.682Z,12.2
2022-12-29T01:31:31.762Z,12.3
2022-12-29T01:32:31.675Z,12.3
2022-12-29T01:33:31.675Z,12.3
2022-12-29T01:34:31.725Z,12.4
2022-12-29T01:35:31.770Z,12.4
2022-12-29T01:36:31.712Z,12.4
2022-12-29T01:37:31.682Z,12.4
2022-12-29T01:38:31.676Z,12.4
2022-12-29T01:39:31.678Z,12.4
2022-12-29T01:40:31.699Z,12.4
2022-12-29T01:41:31.680Z,12.4
2022-12-29T01:42:31.680Z,12.4
2022-12-29T01:43:31.681Z,12.5
2022-12-29T01:44:31.673Z,12.5
2022-12-29T01:45:31.734Z,12.5
2022-12-29T01:46:31.707Z,12.5
2022-12-29T01:47:31.714Z,12.5
2022-12-29T01:48:31.678Z,12.5
2022-12-29T01:49:31.686Z,12.5
2022-12-29T01:50:31.686Z,12.6
2022-12-29T01:51:31.774Z,12.6
2022-12-29T01:52:31.696Z,12.6
2022-12-29T01:53:31.676Z,12.6
2022-12-29T01:54:31.676Z,12.6
2022-12-29T01:55:31.692Z,12.6
2022-12-29T01:56:31.677Z,12.6
2022-12-29T01:57:31.690Z,12.6
2022-12-29T01:58:31.684Z,12.6
2022-12-29T01:59:31.676Z,12.6
2022-12-29T02:00:31.790Z,12.6
2022-12-29T02:01:31.845Z,12.6
2022-12-29T02:02:33.535Z,12.6
2022-12-29T02:03:31.780Z,12.6
2022-12-29T02:04:31.683Z,12.5
2022-12-29T02:05:31.680Z,12.6
2022-12-29T02:06:31.907Z,12.6
2022-12-29T02:07:31.699Z,12.7
2022-12-29T02:08:31.704Z,12.7
2022-12-29T02:09:31.688Z,12.7
2022-12-29T02:10:31.680Z,12.6
2022-12-29T02:11:31.713Z,12.6
2022-12-29T02:12:31.682Z,12.7
2022-12-29T02:13:31.690Z,12.6
2022-12-29T02:14:31.698Z,12.7
2022-12-29T02:15:31.671Z,12.6
2022-12-29T02:16:31.767Z,12.6
2022-12-29T02:17:31.681Z,12.6
2022-12-29T02:18:31.686Z,12.5
2022-12-29T02:19:31.703Z,12.6
2022-12-29T02:20:31.676Z,12.5
2022-12-29T02:21:31.692Z,12.5
2022-12-29T02:22:31.684Z,12.4
2022-12-29T02:23:47.832Z,12.5
2022-12-29T02:24:31.707Z,12.4
2022-12-29T02:25:31.683Z,12.5
2022-12-29T02:26:31.735Z,12.4
2022-12-29T02:27:31.687Z,12.4
2022-12-29T02:28:31.690Z,12.4
2022-12-29T02:29:41.691Z,12.4
2022-12-29T02:30:31.684Z,12.4
2022-12-29T02:31:31.705Z,12.5
2022-12-29T02:32:31.684Z,12.5
2022-12-29T02:33:31.688Z,12.5
2022-12-29T02:34:31.679Z,12.5
2022-12-29T02:35:31.673Z,12.6
2022-12-29T02:36:31.698Z,12.5
2022-12-29T02:37:31.680Z,12.6
2022-12-29T02:38:31.693Z,12.6
2022-12-29T02:39:31.681Z,12.6
2022-12-29T02:40:31.685Z,12.6
2022-12-29T02:41:31.698Z,12.6
2022-12-29T02:42:31.688Z,12.6
2022-12-29T02:43:31.683Z,12.7
2022-12-29T02:44:31.684Z,12.7
2022-12-29T02:45:31.805Z,12.6
2022-12-29T02:46:31.698Z,12.7
2022-12-29T02:47:31.684Z,12.7
2022-12-29T02:48:31.692Z,12.6
2022-12-29T02:49:31.766Z,12.6
2022-12-29T02:50:31.686Z,12.6
2022-12-29T02:51:31.809Z,12.6
2022-12-29T02:52:31.682Z,12.6
2022-12-29T02:53:31.700Z,12.7
2022-12-29T02:54:31.719Z,12.7
2022-12-29T02:55:31.693Z,12.7
2022-12-29T02:56:31.688Z,12.7
2022-12-29T02:57:31.671Z,12.7
2022-12-29T02:58:31.769Z,12.6
2022-12-29T02:59:31.682Z,12.6
2022-12-29T03:00:31.710Z,12.7
2022-12-29T03:01:31.913Z,12.7
2022-12-29T03:02:31.913Z,12.7
2022-12-29T03:03:31.755Z,12.6
2022-12-29T03:04:31.677Z,12.7
2022-12-29T03:05:31.688Z,12.7
2022-12-29T03:06:31.679Z,12.7
2022-12-29T03:07:31.724Z,12.7
2022-12-29T03:08:31.711Z,12.6
2022-12-29T03:09:31.673Z,12.5
2022-12-29T03:10:31.681Z,12.6
2022-12-29T03:11:31.690Z,12.6
2022-12-29T03:12:31.679Z,12.6
2022-12-29T03:13:31.688Z,12.6
2022-12-29T03:14:31.770Z,12.6
2022-12-29T03:15:31.693Z,12.6
2022-12-29T03:16:31.824Z,12.6
2022-12-29T03:17:31.675Z,12.6
2022-12-29T03:18:31.682Z,12.7
2022-12-29T03:19:31.693Z,12.7
2022-12-29T03:20:31.691Z,12.6
2022-12-29T03:21:31.675Z,12.6
2022-12-29T03:22:31.726Z,12.6
2022-12-29T03:23:31.683Z,12.5
2022-12-29T03:24:31.687Z,12.6
2022-12-29T03:25:31.742Z,12.6
2022-12-29T03:26:31.684Z,12.6
2022-12-29T03:27:31.678Z,12.6
2022-12-29T03:28:31.679Z,12.5
2022-12-29T03:29:47.980Z,12.5
2022-12-29T03:30:31.814Z,12.5
2022-12-29T03:31:31.693Z,12.5
2022-12-29T03:32:31.690Z,12.5
2022-12-29T03:33:31.687Z,12.6
2022-12-29T03:34:31.685Z,12.7
2022-12-29T03:35:31.692Z,12.5
2022-12-29T03:36:31.693Z,12.6
2022-12-29T03:37:31.692Z,12.5
2022-12-29T03:38:31.680Z,12.7
2022-12-29T03:39:31.673Z,12.7
2022-12-29T03:40:31.693Z,12.7
2022-12-29T03:41:31.690Z,12.7
2022-12-29T03:42:31.683Z,12.7
2022-12-29T03:43:31.696Z,12.7
2022-12-29T03:44:31.676Z,12.6
2022-12-29T03:45:31.690Z,12.6
2022-12-29T03:46:31.757Z,12.7
2022-12-29T03:47:31.692Z,12.7
2022-12-29T03:48:31.690Z,12.6
2022-12-29T03:49:31.711Z,12.7
2022-12-29T03:50:31.774Z,12.7
2022-12-29T03:51:31.690Z,12.6
2022-12-29T03:52:31.696Z,12.7
2022-12-29T03:53:31.701Z,12.7
2022-12-29T03:54:31.704Z,12.7
2022-12-29T03:55:31.693Z,12.7
2022-12-29T03:56:31.726Z,12.7
2022-12-29T03:57:31.678Z,12.6
2022-12-29T03:58:31.707Z,12.6
2022-12-29T03:59:31.688Z,12.6
2022-12-29T04:00:31.699Z,12.6
2022-12-29T04:01:31.825Z,12.6
2022-12-29T04:02:31.877Z,12.6
2022-12-29T04:03:31.723Z,12.7
2022-12-29T04:04:31.692Z,12.6
2022-12-29T04:05:31.773Z,12.7
2022-12-29T04:06:31.748Z,12.6
2022-12-29T04:07:31.698Z,12.6
2022-12-29T04:08:31.689Z,12.6
2022-12-29T04:09:31.686Z,12.6
2022-12-29T04:10:31.709Z,12.5
2022-12-29T04:11:33.376Z,12.6
2022-12-29T04:12:31.690Z,12.6
2022-12-29T04:13:31.675Z,12.6
2022-12-29T04:14:31.705Z,12.5
2022-12-29T04:15:31.844Z,12.5
2022-12-29T04:16:31.702Z,12.5
2022-12-29T04:17:31.706Z,12.5
2022-12-29T04:18:31.704Z,12.5
2022-12-29T04:19:31.695Z,12.6
2022-12-29T04:20:31.724Z,12.5
2022-12-29T04:21:31.691Z,12.5
2022-12-29T04:22:31.767Z,12.5
2022-12-29T04:23:31.689Z,12.5
2022-12-29T04:24:31.701Z,12.5
2022-12-29T04:25:31.700Z,12.5
2022-12-29T04:26:31.696Z,12.6
2022-12-29T04:27:31.715Z,12.6
2022-12-29T04:28:31.684Z,12.6
2022-12-29T04:29:53.995Z,12.6
2022-12-29T04:30:31.684Z,12.5
2022-12-29T04:31:31.749Z,12.5
2022-12-29T04:32:31.700Z,12.5
2022-12-29T04:33:31.702Z,12.5
2022-12-29T04:34:31.705Z,12.5
2022-12-29T04:35:31.733Z,12.5
2022-12-29T04:36:31.700Z,12.5
2022-12-29T04:37:31.694Z,12.5
2022-12-29T04:38:31.678Z,12.5
2022-12-29T04:39:31.690Z,12.5
2022-12-29T04:40:31.687Z,12.5
2022-12-29T04:41:31.714Z,12.5
2022-12-29T04:42:31.773Z,12.5
2022-12-29T04:43:31.705Z,12.5
2022-12-29T04:44:31.705Z,12.6
2022-12-29T04:45:31.712Z,12.5
2022-12-29T04:46:31.785Z,12.5
2022-12-29T04:47:31.685Z,12.4
2022-12-29T04:48:31.701Z,12.5
2022-12-29T04:49:31.701Z,12.5
2022-12-29T04:50:31.704Z,12.5
2022-12-29T04:51:31.690Z,12.5
2022-12-29T04:52:31.715Z,12.5
2022-12-29T04:53:31.692Z,12.5
2022-12-29T04:54:31.697Z,12.4
2022-12-29T04:55:31.687Z,12.5
2022-12-29T04:56:31.704Z,12.5
2022-12-29T04:57:31.684Z,12.5
2022-12-29T04:58:31.748Z,12.4
2022-12-29T04:59:31.695Z,12.4
2022-12-29T05:00:31.700Z,12.4
2022-12-29T05:01:31.795Z,12.4
2022-12-29T05:02:31.988Z,12.4
2022-12-29T05:03:31.780Z,12.4
2022-12-29T05:04:31.701Z,12.4
2022-12-29T05:05:31.698Z,12.3
2022-12-29T05:06:31.694Z,12.3
2022-12-29T05:07:31.694Z,12.2
2022-12-29T05:09:31.772Z,12.2
2022-12-29T05:10:31.706Z,12.2
2022-12-29T05:11:31.697Z,12.3
2022-12-29T05:12:31.731Z,12.3
2022-12-29T05:13:31.692Z,12.3
2022-12-29T05:14:31.706Z,12.4
2022-12-29T05:15:31.701Z,12.3
2022-12-29T05:16:31.791Z,12.3
2022-12-29T05:17:31.740Z,12.3
2022-12-29T05:18:31.712Z,12.2
2022-12-29T05:19:31.769Z,12.1
2022-12-29T05:20:31.698Z,12.1
2022-12-29T05:21:31.700Z,12.1
2022-12-29T05:22:31.830Z,12.1
2022-12-29T05:23:31.714Z,12.2
2022-12-29T05:24:31.701Z,12.2
2022-12-29T05:25:31.717Z,12.1
2022-12-29T05:26:31.698Z,12.1
2022-12-29T05:27:31.694Z,12.2
2022-12-29T05:28:31.692Z,12.3
2022-12-29T05:29:25.034Z,12.3
2022-12-29T05:30:31.690Z,12.3
2022-12-29T05:31:31.753Z,12.2
2022-12-29T05:32:31.772Z,12.2
2022-12-29T05:33:31.697Z,12.3
2022-12-29T05:34:31.731Z,12.2
2022-12-29T05:35:31.777Z,12.2
2022-12-29T05:36:37.513Z,12.2
2022-12-29T05:37:31.685Z,12.2
2022-12-29T05:38:31.698Z,12.3
2022-12-29T05:39:31.708Z,12.3
2022-12-29T05:40:31.713Z,12.3
2022-12-29T05:41:31.803Z,12.2
2022-12-29T05:42:31.768Z,12.2
2022-12-29T05:43:31.712Z,12.2
2022-12-29T05:44:31.807Z,12.3
2022-12-29T05:45:31.692Z,12.3
2022-12-29T05:46:31.731Z,12.3
2022-12-29T05:47:31.723Z,12.4
2022-12-29T05:48:37.670Z,12.4
2022-12-29T05:49:31.734Z,12.4
2022-12-29T05:50:31.712Z,12.4
2022-12-29T05:51:31.697Z,12.3
2022-12-29T05:52:31.691Z,12.3
2022-12-29T05:53:31.712Z,12.3
2022-12-29T05:54:31.721Z,12.3
2022-12-29T05:55:31.691Z,12.4
2022-12-29T05:56:31.715Z,12.3
2022-12-29T05:57:31.710Z,12.3
2022-12-29T05:58:31.693Z,12.4
2022-12-29T05:59:31.801Z,12.3
2022-12-29T06:00:31.704Z,12.2
2022-12-29T06:01:31.862Z,12.3
2022-12-29T06:02:31.935Z,12.3
2022-12-29T06:03:31.860Z,12.3
2022-12-29T06:04:31.748Z,12.2
2022-12-29T06:05:31.700Z,12.2
2022-12-29T06:06:31.693Z,12.3
2022-12-29T06:07:31.717Z,12.2
2022-12-29T06:08:31.739Z,12.1
2022-12-29T06:09:31.717Z,12
2022-12-29T06:10:31.758Z,12
2022-12-29T06:11:31.724Z,12
2022-12-29T06:12:31.724Z,12.1
2022-12-29T06:13:31.690Z,12.1
2022-12-29T06:14:31.703Z,12
2022-12-29T06:15:31.742Z,12
2022-12-29T06:16:31.744Z,12
2022-12-29T06:17:31.695Z,12
2022-12-29T06:18:31.700Z,12
2022-12-29T06:19:31.710Z,11.9
2022-12-29T06:20:31.705Z,11.9
2022-12-29T06:21:31.705Z,11.9
2022-12-29T06:22:31.689Z,11.8
2022-12-29T06:23:31.700Z,11.9
2022-12-29T06:24:31.805Z,11.9
2022-12-29T06:25:31.704Z,11.9
2022-12-29T06:26:31.704Z,11.9
2022-12-29T06:27:31.687Z,11.9
2022-12-29T06:28:31.697Z,11.9
2022-12-29T06:29:31.730Z,11.7
2022-12-29T06:30:31.695Z,11.8
2022-12-29T06:31:31.694Z,11.8
2022-12-29T06:32:31.709Z,11.8
2022-12-29T06:33:31.703Z,11.8
2022-12-29T06:34:31.720Z,11.8
2022-12-29T06:35:31.711Z,11.8
2022-12-29T06:36:31.697Z,11.7
2022-12-29T06:37:31.702Z,11.6
2022-12-29T06:38:31.698Z,11.7
2022-12-29T06:39:31.735Z,11.7
2022-12-29T06:40:31.689Z,11.8
2022-12-29T06:41:32.587Z,11.8
2022-12-29T06:42:31.702Z,11.8
2022-12-29T06:43:31.712Z,11.7
2022-12-29T06:44:31.719Z,11.7
2022-12-29T06:45:31.773Z,11.7
2022-12-29T06:46:32.050Z,11.7
2022-12-29T06:47:31.712Z,11.6
2022-12-29T06:48:31.702Z,11.6
2022-12-29T06:49:31.846Z,11.6
2022-12-29T06:50:31.703Z,11.5
2022-12-29T06:51:31.725Z,11.5
2022-12-29T06:52:31.705Z,11.5
2022-12-29T06:53:31.708Z,11.6
2022-12-29T06:54:31.742Z,11.7
2022-12-29T06:55:31.964Z,11.7
2022-12-29T06:56:31.706Z,11.7
2022-12-29T06:57:31.697Z,11.7
2022-12-29T06:58:31.769Z,11.7
2022-12-29T06:59:31.710Z,11.7
2022-12-29T07:00:31.756Z,11.7
2022-12-29T07:01:32.209Z,11.8
2022-12-29T07:02:31.888Z,11.7
2022-12-29T07:03:31.713Z,11.7
2022-12-29T07:04:31.782Z,11.7
2022-12-29T07:05:31.796Z,11.7
2022-12-29T07:06:31.705Z,11.8
2022-12-29T07:07:31.811Z,11.8
2022-12-29T07:08:31.704Z,11.6
2022-12-29T07:09:31.727Z,11.8
2022-12-29T07:10:31.701Z,11.7
2022-12-29T07:11:31.723Z,11.7
2022-12-29T07:12:31.709Z,11.7
2022-12-29T07:13:31.716Z,11.7
2022-12-29T07:14:34.643Z,11.7
2022-12-29T07:15:31.745Z,11.7
2022-12-29T07:16:31.796Z,11.7
2022-12-29T07:17:31.740Z,11.7
2022-12-29T07:18:31.705Z,11.7
2022-12-29T07:19:31.724Z,11.7
2022-12-29T07:20:31.830Z,11.7
2022-12-29T07:21:31.695Z,11.7
2022-12-29T07:22:31.699Z,11.8
2022-12-29T07:23:31.743Z,11.7
2022-12-29T07:24:31.719Z,11.7
2022-12-29T07:25:31.708Z,11.8
2022-12-29T07:26:36.326Z,11.8
2022-12-29T07:27:31.709Z,11.8
2022-12-29T07:28:31.704Z,11.9
2022-12-29T07:29:31.719Z,11.8
2022-12-29T07:30:31.697Z,11.8
2022-12-29T07:31:31.815Z,11.9
2022-12-29T07:32:31.715Z,12
2022-12-29T07:33:31.694Z,12.2
2022-12-29T07:34:31.728Z,12.3
2022-12-29T07:35:31.723Z,12.3
2022-12-29T07:36:34.549Z,12.4
2022-12-29T07:37:31.700Z,12.4
2022-12-29T07:38:31.706Z,12.4
2022-12-29T07:39:31.720Z,12.4
2022-12-29T07:40:31.709Z,12.4
2022-12-29T07:41:31.697Z,12.4
2022-12-29T07:42:31.699Z,12.4
2022-12-29T07:43:31.758Z,12.3
2022-12-29T07:44:31.725Z,12.4
2022-12-29T07:45:31.701Z,12.4
2022-12-29T07:46:54.010Z,12.5
2022-12-29T07:47:31.718Z,12.5
2022-12-29T07:48:31.719Z,12.4
2022-12-29T07:49:31.731Z,12.5
2022-12-29T07:50:41.925Z,12.5
2022-12-29T07:51:31.693Z,12.6
2022-12-29T07:52:31.703Z,12.7
2022-12-29T07:53:31.715Z,12.6
2022-12-29T07:54:31.880Z,12.6
2022-12-29T07:55:31.695Z,12.6
2022-12-29T07:56:31.707Z,12.6
2022-12-29T07:57:32.418Z,12.6
2022-12-29T07:58:31.701Z,12.5
2022-12-29T07:59:31.712Z,12.5
2022-12-29T08:00:31.712Z,12.6
2022-12-29T08:01:31.861Z,12.6
2022-12-29T08:02:31.780Z,12.6
2022-12-29T08:03:31.744Z,12.6
2022-12-29T08:04:31.795Z,12.6
2022-12-29T08:05:31.794Z,12.6
2022-12-29T08:06:31.769Z,12.6
2022-12-29T08:07:31.774Z,12.6
2022-12-29T08:08:31.764Z,12.6
2022-12-29T08:09:31.784Z,12.6
2022-12-29T08:10:31.794Z,12.6
2022-12-29T08:11:31.752Z,12.6
2022-12-29T08:12:31.780Z,12.6
2022-12-29T08:13:31.772Z,12.5
2022-12-29T08:14:31.777Z,12.4
2022-12-29T08:15:32.714Z,12.5
2022-12-29T08:16:31.790Z,12.5
2022-12-29T08:17:31.817Z,12.5
2022-12-29T08:18:31.796Z,12.4
2022-12-29T08:19:31.835Z,12.4
2022-12-29T08:20:31.774Z,12.4
2022-12-29T08:21:31.767Z,12.3
2022-12-29T08:22:31.768Z,12.4
2022-12-29T08:23:31.839Z,12.3
2022-12-29T08:24:31.890Z,12.3
2022-12-29T08:25:31.775Z,12.3
2022-12-29T08:26:31.996Z,12.3
2022-12-29T08:27:31.788Z,12.4
2022-12-29T08:28:31.998Z,12.3
2022-12-29T08:29:31.798Z,12.2
2022-12-29T08:30:31.767Z,12.2
2022-12-29T08:31:31.871Z,12.3
2022-12-29T08:32:31.754Z,12.3
2022-12-29T08:33:31.783Z,12.3
2022-12-29T08:34:31.776Z,12.2
2022-12-29T08:35:31.757Z,12.2
2022-12-29T08:36:31.773Z,12.3
2022-12-29T08:37:31.765Z,12.3
2022-12-29T08:38:31.835Z,12.3
2022-12-29T08:39:31.765Z,12.4
2022-12-29T08:40:31.783Z,12.2
2022-12-29T08:41:31.794Z,12.2
2022-12-29T08:42:31.855Z,12.3
2022-12-29T08:43:31.947Z,12.3
2022-12-29T08:44:31.779Z,12.3
2022-12-29T08:45:31.771Z,12.3
2022-12-29T08:46:31.817Z,12.2
2022-12-29T08:47:31.790Z,12.2
2022-12-29T08:48:31.783Z,12.2
2022-12-29T08:49:31.803Z,12.3
2022-12-29T08:50:31.866Z,12.2
2022-12-29T08:51:31.780Z,12.2
2022-12-29T08:52:31.787Z,12.1
2022-12-29T08:53:31.756Z,12.1
2022-12-29T08:54:31.792Z,12.1
2022-12-29T08:55:31.754Z,12.1
2022-12-29T08:56:31.789Z,12.1
2022-12-29T08:57:31.773Z,12
2022-12-29T08:58:31.783Z,11.9
2022-12-29T08:59:31.775Z,12
2022-12-29T09:00:54.169Z,12
2022-12-29T09:01:31.957Z,12.1
2022-12-29T09:02:31.990Z,12.1
2022-12-29T09:04:12.266Z,12.1
2022-12-29T09:04:32.005Z,12
2022-12-29T09:05:31.775Z,12.1
2022-12-29T09:06:36.580Z,12.1
2022-12-29T09:07:31.770Z,12.1
2022-12-29T09:08:31.793Z,12.1
2022-12-29T09:09:31.794Z,12.1
2022-12-29T09:10:31.804Z,12.1
2022-12-29T09:11:31.793Z,12
2022-12-29T09:12:36.403Z,12
2022-12-29T09:13:31.784Z,12
2022-12-29T09:14:31.874Z,12
2022-12-29T09:15:31.796Z,12
2022-12-29T09:16:31.802Z,12
2022-12-29T09:17:31.773Z,12.1
2022-12-29T09:18:31.779Z,12
2022-12-29T09:19:31.791Z,12.1
2022-12-29T09:20:31.785Z,12.1
2022-12-29T09:21:31.793Z,12.1
2022-12-29T09:22:31.758Z,12
2022-12-29T09:23:31.766Z,12
2022-12-29T09:24:31.782Z,12.1
2022-12-29T09:25:31.758Z,12
2022-12-29T09:26:31.762Z,12
2022-12-29T09:27:31.767Z,11.9
2022-12-29T09:28:31.767Z,11.9
2022-12-29T09:29:31.787Z,11.9
2022-12-29T09:30:31.752Z,11.9
2022-12-29T09:31:31.959Z,12
2022-12-29T09:32:33.863Z,11.9
2022-12-29T09:33:31.812Z,11.9
2022-12-29T09:34:31.806Z,12
2022-12-29T09:35:31.781Z,12
2022-12-29T09:36:31.771Z,12.1
2022-12-29T09:37:31.968Z,11.9
2022-12-29T09:38:31.793Z,11.9
2022-12-29T09:39:31.782Z,12
2022-12-29T09:40:31.769Z,12.1
2022-12-29T09:41:31.811Z,12.1
2022-12-29T09:42:31.784Z,12.1
2022-12-29T09:43:31.772Z,12.2
2022-12-29T09:44:31.802Z,12.1
2022-12-29T09:45:31.769Z,12.1
2022-12-29T09:46:31.832Z,12.1
2022-12-29T09:47:31.767Z,12.1
2022-12-29T09:48:31.787Z,12.1
2022-12-29T09:49:31.775Z,12.1
2022-12-29T09:50:31.790Z,12.1
2022-12-29T09:51:31.767Z,12.1
2022-12-29T09:52:31.794Z,12.1
2022-12-29T09:53:31.800Z,12.1
2022-12-29T09:54:31.786Z,12.1
2022-12-29T09:55:31.776Z,12.2
2022-12-29T09:56:31.801Z,12.2
2022-12-29T09:57:31.787Z,12.2
2022-12-29T09:58:31.800Z,12.2
2022-12-29T09:59:31.785Z,12.2
2022-12-29T10:00:25.006Z,12.2
2022-12-29T10:01:31.969Z,12.3
2022-12-29T10:02:31.863Z,12.3
2022-12-29T10:03:31.797Z,12.2
2022-12-29T10:04:31.770Z,12.2
2022-12-29T10:05:31.798Z,12.2
2022-12-29T10:06:31.783Z,12.1
2022-12-29T10:07:31.769Z,12.1
2022-12-29T10:08:31.783Z,12.2
2022-12-29T10:09:31.769Z,12.1
2022-12-29T10:10:31.785Z,12.2
2022-12-29T10:11:31.781Z,12.1
2022-12-29T10:12:31.799Z,12.1
2022-12-29T10:13:32.326Z,12.1
2022-12-29T10:14:31.769Z,12.2
2022-12-29T10:15:31.771Z,12.3
2022-12-29T10:16:31.823Z,12.3
2022-12-29T10:17:31.794Z,12.3
2022-12-29T10:18:31.776Z,12.4
2022-12-29T10:19:33.542Z,12.4
2022-12-29T10:20:31.771Z,12.3
2022-12-29T10:21:31.779Z,12.4
2022-12-29T10:22:31.768Z,12.4
2022-12-29T10:23:31.813Z,12.4
2022-12-29T10:24:31.786Z,12.4
2022-12-29T10:25:33.185Z,12.3
2022-12-29T10:26:31.785Z,12.3
2022-12-29T10:27:31.765Z,12.3
2022-12-29T10:28:31.783Z,12.3
2022-12-29T10:29:31.795Z,12.3
2022-12-29T10:30:31.788Z,12.4
2022-12-29T10:31:31.841Z,12.4
2022-12-29T10:32:31.776Z,12.6
2022-12-29T10:33:31.802Z,12.5
2022-12-29T10:34:31.789Z,12.5
2022-12-29T10:35:31.780Z,12.5
2022-12-29T10:36:31.814Z,12.5
2022-12-29T10:37:33.994Z,12.6
2022-12-29T10:38:31.790Z,12.6
2022-12-29T10:39:31.789Z,12.5
2022-12-29T10:40:31.802Z,12.6
2022-12-29T10:41:31.789Z,12.6
2022-12-29T10:42:31.792Z,12.6
2022-12-29T10:43:31.790Z,12.7
2022-12-29T10:44:31.799Z,12.7
2022-12-29T10:45:31.943Z,12.8
2022-12-29T10:46:31.817Z,12.8
2022-12-29T10:47:31.810Z,12.8
2022-12-29T10:48:32.296Z,12.8
2022-12-29T10:49:31.811Z,12.7
2022-12-29T10:50:31.804Z,12.7
2022-12-29T10:51:31.928Z,12.7
2022-12-29T10:52:31.799Z,12.6
2022-12-29T10:53:31.795Z,12.6
2022-12-29T10:54:31.877Z,12.6
2022-12-29T10:55:31.793Z,12.5
2022-12-29T10:56:31.801Z,12.6
2022-12-29T10:57:31.822Z,12.6
2022-12-29T10:58:31.794Z,12.6
2022-12-29T10:59:31.767Z,12.6
2022-12-29T11:00:31.798Z,12.6
2022-12-29T11:01:32.007Z,12.6
2022-12-29T11:02:31.985Z,12.6
2022-12-29T11:03:31.837Z,12.7
2022-12-29T11:04:31.782Z,12.7
2022-12-29T11:05:31.800Z,12.5
2022-12-29T11:06:31.770Z,12.6
2022-12-29T11:07:31.772Z,12.6
2022-12-29T11:08:31.781Z,12.7
2022-12-29T11:09:47.168Z,12.7
2022-12-29T11:10:31.814Z,12.7
2022-12-29T11:11:31.789Z,12.7
2022-12-29T11:12:31.786Z,12.8
2022-12-29T11:13:36.685Z,12.8
2022-12-29T11:14:31.775Z,12.8
2022-12-29T11:15:31.794Z,12.7
2022-12-29T11:16:31.944Z,12.8
2022-12-29T11:17:31.793Z,12.8
2022-12-29T11:18:31.785Z,12.8
2022-12-29T11:19:36.075Z,12.8
2022-12-29T11:20:31.841Z,12.9
2022-12-29T11:21:31.778Z,12.9
2022-12-29T11:22:31.770Z,12.9
2022-12-29T11:23:31.787Z,12.8
2022-12-29T11:24:31.778Z,12.9
2022-12-29T11:25:31.800Z,12.8
2022-12-29T11:26:34.541Z,12.8
2022-12-29T11:27:31.796Z,12.8
2022-12-29T11:28:31.781Z,12.8
2022-12-29T11:29:31.767Z,12.8
2022-12-29T11:30:31.780Z,12.9
2022-12-29T11:31:31.840Z,12.9
2022-12-29T11:32:31.782Z,12.9
2022-12-29T11:33:31.774Z,13
2022-12-29T11:34:31.785Z,12.9
2022-12-29T11:35:31.794Z,12.9
2022-12-29T11:36:31.784Z,12.9
2022-12-29T11:37:32.088Z,12.9
2022-12-29T11:38:31.797Z,13
2022-12-29T11:39:31.782Z,13
2022-12-29T11:40:31.819Z,13.1
2022-12-29T11:41:31.799Z,13.1
2022-12-29T11:42:31.788Z,13.1
2022-12-29T11:43:31.786Z,13.2
2022-12-29T11:44:31.790Z,13.1
2022-12-29T11:45:31.796Z,13.1
2022-12-29T11:46:31.901Z,13.1
2022-12-29T11:47:31.801Z,13.2
2022-12-29T11:48:31.790Z,13.2
2022-12-29T11:49:31.806Z,13.2
2022-12-29T11:50:31.795Z,13.2
2022-12-29T11:51:31.794Z,13.2
2022-12-29T11:52:31.785Z,13.2
2022-12-29T11:53:31.802Z,13.2
2022-12-29T11:54:31.781Z,13.2
2022-12-29T11:55:31.796Z,13.2
2022-12-29T11:56:38.352Z,13.2
2022-12-29T11:57:31.813Z,13.2
2022-12-29T11:58:31.798Z,13.1
2022-12-29T11:59:31.824Z,13
2022-12-29T12:00:31.800Z,12.9
2022-12-29T12:01:31.850Z,12.9
2022-12-29T12:02:35.814Z,12.9
2022-12-29T12:03:31.937Z,12.9
2022-12-29T12:04:31.845Z,12.9
2022-12-29T12:05:31.784Z,12.8
2022-12-29T12:06:31.784Z,12.9
2022-12-29T12:07:31.787Z,12.8
2022-12-29T12:08:31.771Z,12.9
2022-12-29T12:09:31.777Z,12.9
2022-12-29T12:10:31.785Z,12.8
2022-12-29T12:11:31.783Z,12.8
2022-12-29T12:12:31.783Z,12.8
2022-12-29T12:13:31.791Z,12.8
2022-12-29T12:14:31.783Z,12.9
2022-12-29T12:15:31.810Z,12.8
2022-12-29T12:16:31.829Z,12.8
2022-12-29T12:17:31.790Z,12.8
2022-12-29T12:18:31.796Z,12.9
2022-12-29T12:19:31.799Z,12.9
2022-12-29T12:20:31.907Z,12.9
2022-12-29T12:21:45.474Z,12.9
2022-12-29T12:22:31.789Z,12.9
2022-12-29T12:23:31.778Z,12.9
2022-12-29T12:24:31.810Z,12.9
2022-12-29T12:25:31.795Z,12.9
2022-12-29T12:26:31.795Z,12.9
2022-12-29T12:27:31.798Z,12.9
2022-12-29T12:28:36.570Z,13
2022-12-29T12:29:31.800Z,12.9
2022-12-29T12:30:31.846Z,12.9
2022-12-29T12:31:31.911Z,12.9
2022-12-29T12:32:31.800Z,12.9
2022-12-29T12:33:31.788Z,12.8
2022-12-29T12:34:31.812Z,12.8
2022-12-29T12:35:31.784Z,12.9
2022-12-29T12:36:31.785Z,12.8
2022-12-29T12:37:31.806Z,12.7
2022-12-29T12:38:31.795Z,12.7
2022-12-29T12:39:31.783Z,12.6
2022-12-29T12:40:31.781Z,12.7
2022-12-29T12:41:31.777Z,12.7
2022-12-29T12:42:31.800Z,12.8
2022-12-29T12:43:31.795Z,12.7
2022-12-29T12:44:31.851Z,12.7
2022-12-29T12:45:31.786Z,12.7
2022-12-29T12:46:31.838Z,12.7
2022-12-29T12:47:31.805Z,12.7
2022-12-29T12:48:31.801Z,12.7
2022-12-29T12:49:31.803Z,12.7
2022-12-29T12:50:31.782Z,12.7
2022-12-29T12:51:31.809Z,12.7
2022-12-29T12:52:31.790Z,12.7
2022-12-29T12:53:31.796Z,12.7
2022-12-29T12:54:31.794Z,12.7
2022-12-29T12:55:31.784Z,12.8
2022-12-29T12:56:31.786Z,12.8
2022-12-29T12:57:31.789Z,12.8
2022-12-29T12:58:31.845Z,12.8
2022-12-29T12:59:31.792Z,12.7
2022-12-29T13:00:31.783Z,12.7
2022-12-29T13:01:31.912Z,12.8
2022-12-29T13:02:32.167Z,12.8
2022-12-29T13:03:31.861Z,12.7
2022-12-29T13:04:31.783Z,12.7
2022-12-29T13:05:31.816Z,12.6
2022-12-29T13:06:31.794Z,12.7
2022-12-29T13:07:31.815Z,12.8
2022-12-29T13:08:31.789Z,12.7
2022-12-29T13:09:31.780Z,12.7
2022-12-29T13:10:31.799Z,12.6
2022-12-29T13:11:31.808Z,12.6
2022-12-29T13:12:31.833Z,12.6
2022-12-29T13:13:31.907Z,12.6
2022-12-29T13:14:31.821Z,12.6
2022-12-29T13:15:31.788Z,12.6
2022-12-29T13:16:31.829Z,12.6
2022-12-29T13:17:31.810Z,12.6
2022-12-29T13:18:31.810Z,12.6
2022-12-29T13:19:31.811Z,12.7
2022-12-29T13:20:31.792Z,12.7
2022-12-29T13:21:31.794Z,12.7
2022-12-29T13:22:31.796Z,12.7